Time;durP1;ratioP1;P1;durP2;ratioP2;P2;SDS_P1;SDS_P2;PMS_P1;PMS_P2;Temp;Humidity;BMP_temperature;BMP_pressure;BME280_temperature;BME280_humidity;BME280_pressure;Samples;Min_cycle;Max_cycle;Signal;HPM_P1;HPM_P2
2021/11/07 00:02:02;;;;;;;;;;;;;;;20.69;50.49;101714.19;7280989;19;152322;-48
2021/11/07 00:10:03;;;;;;;;;;;;;;;20.63;50.55;101718.97;7280983;19;153406;-48
2021/11/07 00:12:37;;;;;;;;;;;;;;;20.60;50.41;101724.34;7279482;19;153940;-49
2021/11/07 00:15:04;;;;;;;;;;;;;;;20.59;50.96;101728.28;7281780;19;152102;-48
2021/11/07 00:17:33;;;;;;;;;;;;;;;20.58;51.04;101727.44;7280323;19;153382;-50
2021/11/07 00:20:11;;;;;;;;;;;;;;;20.55;51.07;101725.22;7280932;19;153296;-49
2021/11/07 00:25:18;;;;;;;;;;;;;;;20.57;50.98;101711.75;7282535;19;152601;-49
2021/11/07 00:38:18;;;;;;;;;;;;;;;20.53;51.00;101712.59;7281774;19;152286;-48
2021/11/07 00:40:54;;;;;;;;;;;;;;;20.55;51.36;101704.72;7278991;19;154036;-49
2021/11/07 00:48:25;;;;;;;;;;;;;;;20.52;51.71;101705.31;7280380;19;153210;-48
2021/11/07 00:51:18;;;;;;;;;;;;;;;20.48;51.40;101713.47;7287921;19;152874;-48
2021/11/07 00:53:59;;;;;;;;;;;;;;;20.48;51.87;101716.28;7280239;19;153423;-48
2021/11/07 01:01:33;;;;;;;;;;;;;;;20.47;51.80;101731.44;7280565;19;153207;-49
2021/11/07 01:04:03;;;;;;;;;;;;;;;20.44;51.72;101720.81;7280951;19;151593;-49
2021/11/07 01:06:31;;;;;;;;;;;;;;;20.46;51.93;101723.31;7282707;19;153502;-49
2021/11/07 01:08:58;;;;;;;;;;;;;;;20.42;51.86;101723.03;7278997;19;153302;-49
2021/11/07 01:11:24;;;;;;;;;;;;;;;20.39;52.39;101730.09;7279734;19;153017;-48
2021/11/07 01:13:52;;;;;;;;;;;;;;;20.38;52.42;101731.22;7288638;19;153488;-49
2021/11/07 01:16:19;;;;;;;;;;;;;;;20.38;52.21;101725.59;7280267;19;151782;-49
2021/11/07 01:18:46;;;;;;;;;;;;;;;20.38;52.07;101733.16;7280249;19;152463;-49
2021/11/07 01:21:15;;;;;;;;;;;;;;;20.35;52.32;101733.75;7278460;19;153750;-49
2021/11/07 01:23:47;;;;;;;;;;;;;;;20.35;52.71;101728.97;7281677;19;152642;-49
2021/11/07 01:26:20;;;;;;;;;;;;;;;20.34;52.71;101734.88;7279695;19;153381;-49
2021/11/07 01:28:50;;;;;;;;;;;;;;;20.32;53.24;101732.34;7280561;19;152295;-49
2021/11/07 01:31:18;;;;;;;;;;;;;;;20.32;53.11;101732.34;7288275;19;152440;-49
2021/11/07 01:33:45;;;;;;;;;;;;;;;20.31;52.81;101729.81;7288238;19;152616;-49
2021/11/07 01:38:44;;;;;;;;;;;;;;;20.31;52.82;101729.81;7286657;19;153244;-49
2021/11/07 01:43:42;;;;;;;;;;;;;;;20.26;53.07;101727.03;7288442;19;151910;-50
2021/11/07 01:46:24;;;;;;;;;;;;;;;20.25;53.00;101726.19;7286954;19;152602;-49
2021/11/07 01:51:25;;;;;;;;;;;;;;;20.24;53.33;101721.69;7285880;19;151755;-49
2021/11/07 01:54:07;;;;;;;;;;;;;;;20.24;53.30;101713.28;7285729;19;152756;-49
2021/11/07 01:56:34;;;;;;;;;;;;;;;20.20;53.63;101739.41;7286224;19;153903;-49
2021/11/07 01:59:00;;;;;;;;;;;;;;;20.24;53.53;101748.91;7294179;19;151891;-48
2021/11/07 02:01:27;;;;;;;;;;;;;;;20.22;53.27;101742.75;7283806;19;154049;-49
2021/11/07 02:03:55;;;;;;;;;;;;;;;20.15;53.52;101734.66;7286636;19;151729;-48
2021/11/07 02:06:22;;;;;;;;;;;;;;;20.15;53.23;101725.38;7287457;19;153269;-49
2021/11/07 02:08:49;;;;;;;;;;;;;;;20.15;53.66;101725.38;7286176;19;153044;-49
2021/11/07 02:11:16;;;;;;;;;;;;;;;20.15;53.63;101733.81;7287261;19;151717;-48
2021/11/07 02:13:43;;;;;;;;;;;;;;;20.09;53.56;101734.94;7285180;19;152575;-48
2021/11/07 02:16:11;;;;;;;;;;;;;;;20.07;53.45;101718.41;7283377;19;153317;-49
2021/11/07 02:18:38;;;;;;;;;;;;;;;20.13;53.41;101722.00;7287846;19;151509;-48
2021/11/07 02:21:05;;;;;;;;;;;;;;;20.09;53.81;101732.97;7293614;19;153365;-49
2021/11/07 02:23:32;;;;;;;;;;;;;;;20.12;53.85;101752.06;7286047;19;152704;-49
2021/11/07 02:26:04;;;;;;;;;;;;;;;20.11;53.87;101753.19;7285449;19;153081;-49
2021/11/07 02:28:42;;;;;;;;;;;;;;;20.11;53.73;101755.16;7286558;19;154169;-49
2021/11/07 02:31:11;;;;;;;;;;;;;;;20.09;53.99;101757.38;7284213;19;151825;-49
2021/11/07 02:33:38;;;;;;;;;;;;;;;20.03;54.00;101745.38;7284813;19;152538;-49
2021/11/07 02:36:07;;;;;;;;;;;;;;;20.06;54.09;101741.97;7282357;19;153973;-48
2021/11/07 02:38:35;;;;;;;;;;;;;;;20.06;54.07;101757.97;7287551;19;152545;-49
2021/11/07 02:41:04;;;;;;;;;;;;;;;20.04;53.85;101746.19;7283703;19;153630;-49
2021/11/07 02:43:37;;;;;;;;;;;;;;;20.03;54.25;101744.53;7290949;19;154165;-49
2021/11/07 02:46:04;;;;;;;;;;;;;;;20.03;53.88;101744.53;7284622;19;153600;-50
2021/11/07 02:48:30;;;;;;;;;;;;;;;20.01;53.89;101736.38;7283060;19;153795;-49
2021/11/07 02:50:57;;;;;;;;;;;;;;;19.97;53.68;101732.47;7286027;19;151978;-49
2021/11/07 02:53:24;;;;;;;;;;;;;;;19.95;53.74;101729.94;7283918;19;153438;-49
2021/11/07 02:55:51;;;;;;;;;;;;;;;19.94;53.73;101721.84;7284218;19;153304;-49
2021/11/07 02:58:19;;;;;;;;;;;;;;;19.88;53.67;101718.19;7286068;19;151811;-48
2021/11/07 03:00:46;;;;;;;;;;;;;;;19.85;53.68;101718.75;7284108;19;153438;-49
2021/11/07 03:03:13;;;;;;;;;;;;;;;19.86;53.54;101719.59;7290177;19;153269;-49
2021/11/07 03:05:40;;;;;;;;;;;;;;;19.83;53.78;101728.59;7286386;19;153184;-49
2021/11/07 03:08:07;;;;;;;;;;;;;;;19.82;54.11;101727.75;7285012;19;153825;-48
2021/11/07 03:10:33;;;;;;;;;;;;;;;19.85;53.73;101729.16;7283520;19;152047;-49
2021/11/07 03:13:02;;;;;;;;;;;;;;;19.86;53.88;101728.84;7284297;19;153382;-49
2021/11/07 03:15:29;;;;;;;;;;;;;;;19.84;53.84;101733.91;7281392;19;153205;-48
2021/11/07 03:17:56;;;;;;;;;;;;;;;19.84;53.74;101741.50;7286046;19;151564;-48
2021/11/07 03:20:23;;;;;;;;;;;;;;;19.82;53.96;101750.16;7285021;19;153305;-49
2021/11/07 03:22:50;;;;;;;;;;;;;;;19.81;54.07;101742.88;7284799;19;153219;-49
2021/11/07 03:25:17;;;;;;;;;;;;;;;19.79;53.73;101749.91;7293087;19;151881;-50
2021/11/07 03:27:45;;;;;;;;;;;;;;;19.79;53.52;101752.72;7284649;19;153824;-48
2021/11/07 03:30:26;;;;;;;;;;;;;;;19.79;53.70;101753.56;7285635;19;152257;-49
2021/11/07 03:32:57;;;;;;;;;;;;;;;19.83;53.89;101759.44;7284006;19;153962;-48
2021/11/07 03:35:29;;;;;;;;;;;;;;;19.79;54.22;101758.31;7281495;19;153243;-48
2021/11/07 03:37:56;;;;;;;;;;;;;;;19.80;53.64;101752.44;7285175;19;153191;-49
2021/11/07 03:40:24;;;;;;;;;;;;;;;19.78;53.98;101757.47;7283015;19;152923;-48
2021/11/07 03:42:54;;;;;;;;;;;;;;;19.78;54.00;101760.28;7281154;19;152386;-48
2021/11/07 03:45:21;;;;;;;;;;;;;;;19.73;53.98;101757.47;7282816;19;153153;-49
2021/11/07 03:47:48;;;;;;;;;;;;;;;19.77;53.68;101752.13;7289963;19;153143;-49
2021/11/07 03:50:15;;;;;;;;;;;;;;;19.73;54.01;101751.88;7282601;19;151939;-49
2021/11/07 03:52:42;;;;;;;;;;;;;;;19.75;53.84;101758.06;7280014;19;153616;-49
2021/11/07 03:55:09;;;;;;;;;;;;;;;19.71;53.64;101744.88;7282163;19;152731;-48
2021/11/07 03:57:36;;;;;;;;;;;;;;;19.68;54.05;101751.03;7285757;19;152029;-49
2021/11/07 04:00:05;;;;;;;;;;;;;;;19.67;54.21;101747.38;7280935;19;152012;-48
2021/11/07 04:02:32;;;;;;;;;;;;;;;19.62;54.34;101741.81;7278891;19;153575;-49
2021/11/07 04:04:59;;;;;;;;;;;;;;;19.64;54.10;101744.31;7282107;19;152211;-49
2021/11/07 04:07:26;;;;;;;;;;;;;;;19.64;54.49;101745.16;7284849;19;152890;-48
2021/11/07 04:09:52;;;;;;;;;;;;;;;19.62;54.37;101755.00;7288446;19;154235;-49
2021/11/07 04:12:19;;;;;;;;;;;;;;;19.58;54.46;101740.69;7282804;19;153074;-49
2021/11/07 04:14:46;;;;;;;;;;;;;;;19.59;54.62;101747.13;7280409;19;152712;-48
2021/11/07 04:17:13;;;;;;;;;;;;;;;19.58;54.68;101753.88;7282674;19;152143;-49
2021/11/07 04:19:40;;;;;;;;;;;;;;;19.57;55.38;101743.78;7284527;19;152806;-48
2021/11/07 04:22:10;;;;;;;;;;;;;;;19.61;55.42;101737.34;7281002;19;153927;-48
2021/11/07 04:24:37;;;;;;;;;;;;;;;19.61;55.39;101730.88;7280811;19;152426;-49
2021/11/07 04:27:04;;;;;;;;;;;;;;;19.61;55.70;101734.53;7283280;19;151893;-49
2021/11/07 04:29:32;;;;;;;;;;;;;;;19.64;55.66;101733.09;7281260;19;153332;-48
2021/11/07 04:31:59;;;;;;;;;;;;;;;19.57;55.36;101726.97;7286532;19;151973;-49
2021/11/07 04:34:26;;;;;;;;;;;;;;;19.61;55.82;101728.06;7283426;19;154239;-48
2021/11/07 04:36:54;;;;;;;;;;;;;;;19.58;55.64;101737.88;7283361;19;151618;-49
2021/11/07 04:39:23;;;;;;;;;;;;;;;19.56;55.60;101731.72;7281537;19;152617;-49
2021/11/07 04:41:50;;;;;;;;;;;;;;;19.54;55.46;101736.75;7282111;19;153898;-48
2021/11/07 04:44:17;;;;;;;;;;;;;;;19.53;55.50;101729.50;7281402;19;152307;-48
2021/11/07 04:46:44;;;;;;;;;;;;;;;19.56;56.00;101722.47;7281493;19;152641;-49
2021/11/07 04:49:11;;;;;;;;;;;;;;;19.58;55.59;101731.47;7280580;19;153772;-49
2021/11/07 04:51:38;;;;;;;;;;;;;;;19.57;55.80;101732.56;7282625;19;151948;-49
2021/11/07 04:54:05;;;;;;;;;;;;;;;19.51;55.48;101731.72;7286596;19;153149;-49
2021/11/07 04:56:32;;;;;;;;;;;;;;;19.46;55.74;101729.78;7281540;19;152108;-48
2021/11/07 04:58:59;;;;;;;;;;;;;;;19.48;56.04;101737.91;7282420;19;152112;-49
2021/11/07 05:01:27;;;;;;;;;;;;;;;19.48;55.71;101740.72;7276931;19;153914;-48
2021/11/07 05:03:54;;;;;;;;;;;;;;;19.47;55.52;101739.03;7283217;19;151697;-48
2021/11/07 05:06:22;;;;;;;;;;;;;;;19.45;55.36;101730.06;7287068;19;152707;-49
2021/11/07 05:08:49;;;;;;;;;;;;;;;19.42;55.57;101734.25;7287976;19;153659;-49
2021/11/07 05:11:16;;;;;;;;;;;;;;;19.43;55.48;101735.09;7286974;19;152076;-49
2021/11/07 05:13:43;;;;;;;;;;;;;;;19.44;55.51;101734.00;7294473;19;152642;-48
2021/11/07 05:16:10;;;;;;;;;;;;;;;19.40;55.70;101741.22;7288163;19;152202;-49
2021/11/07 05:18:37;;;;;;;;;;;;;;;19.40;55.63;101738.44;7287313;19;153579;-49
2021/11/07 05:21:04;;;;;;;;;;;;;;;19.40;55.63;101742.06;7285015;19;153415;-48
2021/11/07 05:23:31;;;;;;;;;;;;;;;19.37;55.70;101751.06;7289119;19;152217;-49
2021/11/07 05:25:58;;;;;;;;;;;;;;;19.36;55.45;101740.13;7286939;19;152614;-49
2021/11/07 05:28:26;;;;;;;;;;;;;;;19.34;55.80;101742.38;7285940;19;153327;-48
2021/11/07 05:30:53;;;;;;;;;;;;;;;19.35;55.50;101735.66;7289112;19;152302;-49
2021/11/07 05:33:20;;;;;;;;;;;;;;;19.36;55.58;101740.97;7288503;19;152954;-49
2021/11/07 05:35:48;;;;;;;;;;;;;;;19.33;56.08;101751.91;7295010;19;153236;-49
2021/11/07 05:38:14;;;;;;;;;;;;;;;19.37;55.63;101753.00;7288349;19;153198;-49
2021/11/07 05:40:41;;;;;;;;;;;;;;;19.35;56.13;101736.47;7286056;19;152848;-48
2021/11/07 05:43:08;;;;;;;;;;;;;;;19.32;55.99;101720.22;7288611;19;153057;-49
2021/11/07 05:45:35;;;;;;;;;;;;;;;19.37;55.74;101736.19;7286627;19;153683;-48
2021/11/07 05:48:02;;;;;;;;;;;;;;;19.37;55.71;101725.84;7287037;19;153851;-48
2021/11/07 05:50:29;;;;;;;;;;;;;;;19.36;55.51;101737.31;7287722;19;151963;-48
2021/11/07 05:52:56;;;;;;;;;;;;;;;19.31;55.45;101745.72;7285095;19;153428;-49
2021/11/07 05:55:23;;;;;;;;;;;;;;;19.27;55.85;101751.03;7285186;19;153396;-49
2021/11/07 05:57:50;;;;;;;;;;;;;;;19.28;55.93;101746.28;7296328;19;152120;-49
2021/11/07 06:00:19;;;;;;;;;;;;;;;19.30;55.79;101735.66;7286239;19;154034;-48
2021/11/07 06:02:48;;;;;;;;;;;;;;;19.32;55.84;101750.22;7283015;19;151797;-49
2021/11/07 06:05:16;;;;;;;;;;;;;;;19.25;55.74;101747.72;7286880;19;152237;-48
2021/11/07 06:07:43;;;;;;;;;;;;;;;19.25;55.64;101747.72;7286384;19;153237;-49
2021/11/07 06:10:11;;;;;;;;;;;;;;;19.23;55.53;101735.94;7287847;19;152414;-49
2021/11/07 06:12:38;;;;;;;;;;;;;;;19.25;55.40;101735.66;7285376;19;152958;-48
2021/11/07 06:15:06;;;;;;;;;;;;;;;19.28;55.75;101737.88;7284086;19;153415;-48
2021/11/07 06:17:33;;;;;;;;;;;;;;;19.24;55.38;101739.56;7286046;19;151809;-48
2021/11/07 06:20:00;;;;;;;;;;;;;;;19.22;55.58;101736.19;7293937;19;153775;-48
2021/11/07 06:22:27;;;;;;;;;;;;;;;19.26;55.72;101738.16;7284879;19;152520;-49
2021/11/07 06:24:54;;;;;;;;;;;;;;;19.22;55.55;101734.25;7285267;19;152554;-49
2021/11/07 06:27:21;;;;;;;;;;;;;;;19.18;56.00;101737.88;7286207;19;152899;-48
2021/11/07 06:29:47;;;;;;;;;;;;;;;19.19;55.87;101739.56;7286358;19;152168;-48
2021/11/07 06:32:15;;;;;;;;;;;;;;;19.18;55.28;101735.06;7287172;19;152718;-48
2021/11/07 06:34:42;;;;;;;;;;;;;;;19.20;55.36;101746.84;7283711;19;153539;-49
2021/11/07 06:37:10;;;;;;;;;;;;;;;19.15;55.83;101738.44;7286907;19;151764;-48
2021/11/07 06:39:37;;;;;;;;;;;;;;;19.15;55.53;101738.44;7283582;19;153075;-49
2021/11/07 06:42:05;;;;;;;;;;;;;;;19.13;55.76;101741.53;7291426;19;153505;-48
2021/11/07 06:44:34;;;;;;;;;;;;;;;19.14;55.57;101732.00;7284986;19;152700;-49
2021/11/07 06:47:02;;;;;;;;;;;;;;;19.15;55.50;101747.69;7285610;19;153375;-49
2021/11/07 06:49:29;;;;;;;;;;;;;;;19.13;55.57;101755.53;7285280;19;152407;-48
2021/11/07 06:51:58;;;;;;;;;;;;;;;19.09;55.79;101751.59;7284456;19;153096;-48
2021/11/07 06:54:26;;;;;;;;;;;;;;;19.17;55.20;101751.03;7283263;19;153531;-48
2021/11/07 06:56:54;;;;;;;;;;;;;;;19.16;55.60;101756.94;7270213;19;151758;-49
2021/11/07 06:59:21;;;;;;;;;;;;;;;19.10;55.41;101761.69;7285606;19;153074;-49
2021/11/07 07:01:48;;;;;;;;;;;;;;;19.11;55.44;101763.38;7283404;19;153949;-49
2021/11/07 07:04:15;;;;;;;;;;;;;;;19.07;55.62;101762.25;7294142;19;151689;-49
2021/11/07 07:06:42;;;;;;;;;;;;;;;19.07;55.54;101754.69;7284804;19;154071;-49
2021/11/07 07:09:12;;;;;;;;;;;;;;;19.08;55.81;101750.75;7285898;19;151907;-49
2021/11/07 07:14:13;;;;;;;;;;;;;;;19.04;55.68;101763.63;7280220;19;152651;-48
2021/11/07 07:16:49;;;;;;;;;;;;;;;19.05;55.67;101770.09;7286161;19;151736;-49
2021/11/07 07:34:26;;;;;;;;;;;;;;;19.13;56.36;101761.13;7282561;19;153221;-49
2021/11/07 07:36:54;;;;;;;;;;;;;;;19.17;56.40;101764.22;7285784;19;152409;-48
2021/11/07 07:39:21;;;;;;;;;;;;;;;19.20;56.64;101767.31;7282961;19;153369;-49
2021/11/07 07:41:48;;;;;;;;;;;;;;;19.21;56.66;101773.75;7282483;19;154010;-48
2021/11/07 07:44:15;;;;;;;;;;;;;;;19.23;57.30;101786.34;7282627;19;151827;-49
2021/11/07 07:46:44;;;;;;;;;;;;;;;19.25;57.79;101786.94;7291180;19;152538;-48
2021/11/07 07:49:12;;;;;;;;;;;;;;;19.29;57.83;101784.41;7282854;19;151728;-48
2021/11/07 07:51:39;;;;;;;;;;;;;;;19.34;57.71;101790.00;7285310;19;152643;-49
2021/11/07 07:54:06;;;;;;;;;;;;;;;19.38;57.83;101777.13;7281363;19;153970;-49
2021/11/07 07:56:35;;;;;;;;;;;;;;;19.43;58.18;101772.38;7283138;19;151750;-48
2021/11/07 07:59:03;;;;;;;;;;;;;;;19.49;58.12;101773.22;7285134;19;152658;-49
2021/11/07 08:01:30;;;;;;;;;;;;;;;19.54;57.92;101768.44;7282494;19;154355;-48
2021/11/07 08:03:57;;;;;;;;;;;;;;;19.60;57.74;101786.09;7284627;19;152109;-49
2021/11/07 08:06:23;;;;;;;;;;;;;;;19.64;57.59;101787.22;7283802;19;151883;-48
2021/11/07 08:08:50;;;;;;;;;;;;;;;19.68;57.37;101779.91;7291274;19;154055;-48
2021/11/07 08:11:18;;;;;;;;;;;;;;;19.76;57.08;101814.97;7284575;19;152280;-49
2021/11/07 08:13:50;;;;;;;;;;;;;;;19.82;57.26;101811.03;7281673;19;153982;-49
2021/11/07 08:16:18;;;;;;;;;;;;;;;19.85;57.26;101833.72;7284468;19;151799;-48
2021/11/07 08:18:45;;;;;;;;;;;;;;;19.91;57.15;101838.22;7283869;19;153509;-49
2021/11/07 08:21:12;;;;;;;;;;;;;;;19.98;56.80;101835.97;7282469;19;154011;-49
2021/11/07 08:23:39;;;;;;;;;;;;;;;20.02;56.88;101844.66;7284093;19;151603;-49
2021/11/07 08:26:08;;;;;;;;;;;;;;;20.07;56.40;101841.84;7282230;19;153259;-48
2021/11/07 08:28:35;;;;;;;;;;;;;;;20.12;56.64;101855.03;7282593;19;153261;-48
2021/11/07 08:31:06;;;;;;;;;;;;;;;20.17;57.06;101858.63;7289350;19;151717;-48
2021/11/07 08:33:34;;;;;;;;;;;;;;;20.23;56.64;101857.50;7280403;19;154115;-48
2021/11/07 08:36:09;;;;;;;;;;;;;;;20.26;56.42;101856.94;7283232;19;152163;-48
2021/11/07 08:38:43;;;;;;;;;;;;;;;20.32;56.47;101864.25;7281325;19;153199;-48
2021/11/07 08:41:12;;;;;;;;;;;;;;;20.38;56.44;101865.09;7288556;19;154101;-49
2021/11/07 09:00:27;;;;;;;;;;;;;;;20.73;55.46;101876.19;7289656;19;153751;-49
2021/11/07 09:04:56;;;;;;;;;;;;;;;20.83;55.55;101872.50;7289241;19;151760;-49
2021/11/07 09:07:37;;;;;;;;;;;;;;;20.88;55.45;101868.81;7287192;19;152704;-49
2021/11/07 09:10:07;;;;;;;;;;;;;;;20.92;55.26;101867.97;7286681;19;153277;-49
2021/11/07 09:12:35;;;;;;;;;;;;;;;20.96;55.08;101869.06;7289225;19;152373;-49
2021/11/07 09:15:03;;;;;;;;;;;;;;;21.02;54.84;101881.13;7285544;19;153924;-49
2021/11/07 09:17:31;;;;;;;;;;;;;;;21.09;54.99;101876.00;7294835;19;151513;-50
2021/11/07 09:20:04;;;;;;;;;;;;;;;21.08;54.77;101877.13;7288976;19;153379;-49
2021/11/07 09:22:38;;;;;;;;;;;;;;;21.11;54.35;101883.03;7284833;19;154558;-49
2021/11/07 09:25:09;;;;;;;;;;;;;;;21.15;53.68;101883.31;7289032;19;151880;-49
2021/11/07 09:27:43;;;;;;;;;;;;;;;21.15;53.66;101877.69;7280931;19;152721;-49
2021/11/07 09:30:19;;;;;;;;;;;;;;;21.17;53.49;101881.03;7281343;19;153440;-49
2021/11/07 09:33:10;;;;;;;;;;;;;;;21.24;52.83;101867.53;7281933;19;153123;-49
2021/11/07 09:38:22;;;;;;;;;;;;;;;21.24;52.23;101876.81;7286124;19;153736;-49
2021/11/07 09:43:35;;;;;;;;;;;;;;;21.27;52.81;101883.81;7287484;19;153610;-49
2021/11/07 09:46:28;;;;;;;;;;;;;;;21.27;52.51;101892.22;7285744;19;152182;-49
2021/11/07 09:48:54;;;;;;;;;;;;;;;21.26;52.17;101887.72;7278906;19;152966;-49
2021/11/07 09:51:23;;;;;;;;;;;;;;;21.27;51.97;101890.28;7282462;19;152314;-50
2021/11/07 09:53:54;;;;;;;;;;;;;;;21.29;51.97;101890.84;7285593;19;152175;-49
2021/11/07 09:56:23;;;;;;;;;;;;;;;21.31;51.79;101890.53;7284591;19;153467;-49
2021/11/07 09:58:53;;;;;;;;;;;;;;;21.35;51.37;101891.63;7285953;19;154520;-49
2021/11/07 10:01:21;;;;;;;;;;;;;;;21.33;51.42;101893.88;7293959;19;152598;-48
2021/11/07 10:03:49;;;;;;;;;;;;;;;21.34;51.08;101911.59;7284078;19;153509;-49
2021/11/07 10:06:18;;;;;;;;;;;;;;;21.34;51.25;101915.25;7286817;19;152135;-49
2021/11/07 10:08:46;;;;;;;;;;;;;;;21.32;51.14;101913.84;7287501;19;153354;-49
2021/11/07 10:11:13;;;;;;;;;;;;;;;21.34;51.38;101900.34;7285746;19;154177;-49
2021/11/07 10:13:56;;;;;;;;;;;;;;;21.34;51.17;101903.16;7285200;19;151658;-49
2021/11/07 10:16:33;;;;;;;;;;;;;;;21.34;50.91;101898.38;7281760;19;153577;-49
2021/11/07 10:19:12;;;;;;;;;;;;;;;21.35;51.25;101891.63;7284268;19;153454;-49
2021/11/07 10:21:45;;;;;;;;;;;;;;;21.37;51.17;101899.75;7286975;19;151827;-48
2021/11/07 10:24:16;;;;;;;;;;;;;;;21.38;51.73;101893.03;7294332;19;153082;-49
2021/11/07 10:26:45;;;;;;;;;;;;;;;21.40;51.52;101876.69;7285935;19;151520;-49
2021/11/07 10:29:15;;;;;;;;;;;;;;;21.42;51.65;101877.25;7284411;19;152033;-49
2021/11/07 10:31:47;;;;;;;;;;;;;;;21.44;51.15;101875.00;7286148;19;153391;-48
2021/11/07 10:39:31;;;;;;;;;;;;;;;21.49;50.91;101883.38;7284066;19;154400;-49
2021/11/07 10:42:17;;;;;;;;;;;;;;;21.51;50.35;101881.13;7286773;19;151617;-50
2021/11/07 10:48:01;;;;;;;;;;;;;;;21.23;43.40;101877.09;7294090;19;153399;-50
2021/11/07 10:52:46;;;;;;;;;;;;;;;21.31;44.45;101893.31;7285724;19;154105;-49
2021/11/07 10:55:16;;;;;;;;;;;;;;;21.32;44.81;101888.56;7284771;19;152307;-49
2021/11/07 10:57:44;;;;;;;;;;;;;;;21.32;44.44;101891.34;7287195;19;153179;-49
2021/11/07 11:00:20;;;;;;;;;;;;;;;21.30;44.62;101886.06;7283272;19;153627;-49
2021/11/07 11:02:48;;;;;;;;;;;;;;;21.29;45.00;101893.63;7283517;19;152312;-49
2021/11/07 11:05:20;;;;;;;;;;;;;;;21.29;45.34;101904.88;7286124;19;153300;-49
2021/11/07 11:07:50;;;;;;;;;;;;;;;21.28;45.16;101894.75;7284503;19;153885;-50
2021/11/07 11:10:20;;;;;;;;;;;;;;;21.28;45.05;101894.75;7293738;19;151770;-50
2021/11/07 11:12:50;;;;;;;;;;;;;;;21.27;45.02;101903.47;7284961;19;154255;-49
2021/11/07 11:15:24;;;;;;;;;;;;;;;21.26;45.40;101905.44;7284690;19;152112;-49
2021/11/07 11:17:56;;;;;;;;;;;;;;;21.24;45.30;101898.44;7283622;19;153258;-50
2021/11/07 11:20:32;;;;;;;;;;;;;;;21.24;45.04;101890.00;7283174;19;153535;-49
2021/11/07 11:28:17;;;;;;;;;;;;;;;21.24;45.58;101890.00;7285451;19;153655;-48
2021/11/07 11:33:25;;;;;;;;;;;;;;;21.23;45.44;101880.75;7282967;19;153918;-49
2021/11/07 11:36:04;;;;;;;;;;;;;;;21.22;44.87;101872.59;7282313;19;151795;-50
2021/11/07 11:38:38;;;;;;;;;;;;;;;21.22;45.58;101890.28;7284934;19;152631;-49
2021/11/07 11:41:10;;;;;;;;;;;;;;;21.26;45.82;101904.59;7284164;19;153968;-50
2021/11/07 11:43:49;;;;;;;;;;;;;;;21.27;45.73;101906.28;7285061;19;153507;-49
2021/11/07 11:46:24;;;;;;;;;;;;;;;21.26;45.84;101901.78;7284386;19;153409;-49
2021/11/07 11:49:13;;;;;;;;;;;;;;;21.26;46.55;101902.63;7284146;19;153263;-49
2021/11/07 11:57:02;;;;;;;;;;;;;;;21.24;46.37;101885.25;7284561;19;153402;-50
2021/11/07 11:59:37;;;;;;;;;;;;;;;21.24;46.66;101870.34;7283249;19;152352;-50
2021/11/07 12:02:10;;;;;;;;;;;;;;;21.24;46.73;101884.41;7279817;19;155100;-49
2021/11/07 12:04:41;;;;;;;;;;;;;;;21.25;46.34;101872.03;7285886;19;151766;-50
2021/11/07 12:07:11;;;;;;;;;;;;;;;21.23;46.52;101879.91;7282709;19;153540;-49
2021/11/07 12:12:20;;;;;;;;;;;;;;;21.20;46.09;101892.56;7284049;19;151819;-49
2021/11/07 12:14:50;;;;;;;;;;;;;;;21.23;46.36;101910.81;7280078;19;152652;-49
2021/11/07 12:17:25;;;;;;;;;;;;;;;21.21;45.97;101911.09;7290885;19;153993;-49
2021/11/07 12:19:57;;;;;;;;;;;;;;;21.22;46.10;101909.13;7284044;19;153716;-50
2021/11/07 12:22:27;;;;;;;;;;;;;;;21.27;45.96;101895.03;7283507;19;154132;-49
2021/11/07 12:24:58;;;;;;;;;;;;;;;21.31;46.84;101893.31;7284037;19;152598;-50
2021/11/07 12:27:29;;;;;;;;;;;;;;;21.36;46.23;101898.91;7283360;19;153763;-49
2021/11/07 12:29:59;;;;;;;;;;;;;;;21.38;46.31;101891.06;7283289;19;153393;-49
2021/11/07 12:32:30;;;;;;;;;;;;;;;21.46;46.20;101882.00;7281054;19;152462;-50
2021/11/07 12:35:06;;;;;;;;;;;;;;;21.54;46.26;101875.75;7281150;19;153244;-50
2021/11/07 12:40:33;;;;;;;;;;;;;;;21.62;45.54;101879.91;7287979;19;152143;-52
2021/11/07 12:43:01;;;;;;;;;;;;;;;21.63;45.67;101881.56;7281658;19;153419;-51
2021/11/07 12:45:35;;;;;;;;;;;;;;;21.65;45.46;101880.16;7283680;19;151545;-52
2021/11/07 12:48:05;;;;;;;;;;;;;;;21.64;44.87;101889.72;7281673;19;152066;-51
2021/11/07 12:50:35;;;;;;;;;;;;;;;21.66;45.57;101887.47;7281767;19;153220;-50
2021/11/07 12:53:02;;;;;;;;;;;;;;;21.64;45.02;101874.81;7283895;19;152249;-53
2021/11/07 12:55:43;;;;;;;;;;;;;;;21.66;45.33;101890.28;7279491;19;153378;-51
2021/11/07 12:58:13;;;;;;;;;;;;;;;21.67;45.56;101882.66;7282367;19;153715;-51
2021/11/07 13:00:41;;;;;;;;;;;;;;;21.67;45.16;101877.88;7283223;19;152042;-51
2021/11/07 13:03:09;;;;;;;;;;;;;;;21.66;44.98;101869.75;7284894;19;153341;-51
2021/11/07 13:05:38;;;;;;;;;;;;;;;21.68;45.05;101890.81;7281501;19;151934;-50
2021/11/07 13:08:09;;;;;;;;;;;;;;;21.71;46.07;101886.59;7280356;19;152111;-50
2021/11/07 13:13:41;;;;;;;;;;;;;;;21.72;45.58;101883.47;7278439;19;152203;-51
2021/11/07 13:16:21;;;;;;;;;;;;;;;21.73;45.72;101876.72;7279774;19;152397;-51
2021/11/07 13:18:58;;;;;;;;;;;;;;;21.73;45.34;101876.72;7281037;19;153314;-51
2021/11/07 13:24:12;;;;;;;;;;;;;;;21.71;44.95;101866.91;7280467;19;153651;-51
2021/11/07 13:26:47;;;;;;;;;;;;;;;21.71;44.96;101870.53;7294184;19;152895;-49
2021/11/07 13:29:29;;;;;;;;;;;;;;;21.69;45.08;101847.50;7288542;19;152666;-51
2021/11/07 13:32:30;;;;;;;;;;;;;;;21.68;44.52;101854.25;7288536;19;153701;-49
2021/11/07 13:34:55;;;;;;;;;;;;;;;21.69;45.23;101864.38;7286847;19;152039;-51
2021/11/07 13:37:22;;;;;;;;;;;;;;;21.68;44.85;101867.47;7286636;19;154081;-51
2021/11/07 13:39:49;;;;;;;;;;;;;;;21.65;45.48;101868.06;7285505;19;153296;-51
2021/11/07 13:42:17;;;;;;;;;;;;;;;21.67;44.98;101857.34;7288460;19;152203;-51
2021/11/07 13:44:46;;;;;;;;;;;;;;;21.66;45.19;101852.88;7286584;19;151864;-51
2021/11/07 13:47:13;;;;;;;;;;;;;;;21.67;44.67;101851.72;7292926;19;153955;-51
2021/11/07 13:49:43;;;;;;;;;;;;;;;21.69;44.95;101855.09;7286029;19;153191;-51
2021/11/07 13:52:10;;;;;;;;;;;;;;;21.72;45.12;101857.31;7286829;19;153988;-50
2021/11/07 13:54:38;;;;;;;;;;;;;;;21.74;45.33;101857.88;7288172;19;151876;-50
2021/11/07 13:57:06;;;;;;;;;;;;;;;21.76;45.29;101846.34;7284962;19;153354;-51
2021/11/07 13:59:34;;;;;;;;;;;;;;;21.77;45.29;101850.81;7283410;19;153900;-51
2021/11/07 14:02:09;;;;;;;;;;;;;;;21.79;45.52;101846.56;7284725;19;152225;-50
2021/11/07 14:04:39;;;;;;;;;;;;;;;21.81;45.59;101837.81;7285890;19;153407;-51
2021/11/07 14:07:09;;;;;;;;;;;;;;;21.82;45.47;101840.34;7282756;19;154280;-50
2021/11/07 14:09:36;;;;;;;;;;;;;;;21.82;45.48;101851.59;7295346;19;152180;-50
2021/11/07 14:12:04;;;;;;;;;;;;;;;21.84;45.53;101848.50;7287177;19;153415;-51
2021/11/07 14:14:31;;;;;;;;;;;;;;;21.82;45.90;101840.34;7287493;19;152503;-51
2021/11/07 14:16:59;;;;;;;;;;;;;;;21.85;45.22;101855.81;7284716;19;152339;-50
2021/11/07 14:19:26;;;;;;;;;;;;;;;21.86;45.23;101851.84;7285088;19;153983;-51
2021/11/07 14:21:57;;;;;;;;;;;;;;;21.86;45.22;101852.69;7285404;19;152059;-50
2021/11/07 14:24:28;;;;;;;;;;;;;;;21.83;45.70;101869.31;7287166;19;153268;-51
2021/11/07 14:29:42;;;;;;;;;;;;;;;21.87;45.67;101871.25;7284287;19;151876;-51
2021/11/07 14:32:19;;;;;;;;;;;;;;;21.88;45.94;101860.84;7291387;19;152769;-51
2021/11/07 14:34:59;;;;;;;;;;;;;;;21.87;46.04;101847.91;7284251;19;152245;-51
2021/11/07 14:37:39;;;;;;;;;;;;;;;21.87;46.07;101857.19;7281623;19;153801;-51